createdAt,value
2023-08-06T00:00:54.101Z,97899.66
2023-08-06T00:03:20.739Z,97896.47
2023-08-06T00:05:47.280Z,97887.19
2023-08-06T00:08:13.904Z,97883.09
2023-08-06T00:10:41.712Z,97888.41
2023-08-06T00:13:08.291Z,97888.44
2023-08-06T00:15:34.930Z,97882.44
2023-08-06T00:18:01.469Z,97881.81
2023-08-06T00:20:28.120Z,97869.41
2023-08-06T00:22:54.568Z,97867.53
2023-08-06T00:25:21.106Z,97876.66
2023-08-06T00:27:47.636Z,97870.72
2023-08-06T00:30:14.198Z,97878.56
2023-08-06T00:32:40.768Z,97872.53
2023-08-06T00:35:07.850Z,97867.38
2023-08-06T00:37:34.361Z,97865.50
2023-08-06T00:40:00.834Z,97872.91
2023-08-06T00:42:27.309Z,97863.03
2023-08-06T00:44:53.791Z,97855.78
2023-08-06T00:47:20.535Z,97860.19
2023-08-06T00:49:47.115Z,97862.59
2023-08-06T00:52:15.095Z,97852.34
2023-08-06T00:54:42.201Z,97858.75
2023-08-06T00:57:10.440Z,97858.47
2023-08-06T00:59:37.047Z,97863.75
2023-08-06T01:02:04.063Z,97859.16
2023-08-06T01:04:30.661Z,97860.31
2023-08-06T01:07:07.799Z,97861.72
2023-08-06T01:10:02.781Z,97855.31
2023-08-06T01:12:35.294Z,97855.00
2023-08-06T01:15:40.365Z,97843.00
2023-08-06T01:18:07.372Z,97847.16
2023-08-06T01:20:33.900Z,97851.97
2023-08-06T01:23:00.437Z,97846.97
2023-08-06T01:25:54.631Z,97852.53
2023-08-06T01:28:34.045Z,97855.25
2023-08-06T01:31:03.328Z,97853.13
2023-08-06T01:33:33.642Z,97856.97
2023-08-06T01:36:00.678Z,97856.75
2023-08-06T01:38:29.242Z,97852.97
2023-08-06T01:40:55.778Z,97852.16
2023-08-06T01:43:22.323Z,97851.66
2023-08-06T01:45:48.924Z,97843.69
2023-08-06T01:48:15.484Z,97840.28
2023-08-06T01:50:42.057Z,97847.13
2023-08-06T01:53:08.624Z,97850.34
2023-08-06T01:55:35.173Z,97850.16
2023-08-06T01:58:01.721Z,97851.69
2023-08-06T02:00:29.900Z,97842.66
2023-08-06T02:02:56.489Z,97834.38
2023-08-06T02:05:23.059Z,97838.59
2023-08-06T02:07:49.522Z,97847.75
2023-08-06T02:10:16.080Z,97843.53
2023-08-06T02:12:42.605Z,97849.59
2023-08-06T02:15:09.525Z,97852.63
2023-08-06T02:17:36.070Z,97851.81
2023-08-06T02:20:02.829Z,97844.19
2023-08-06T02:22:29.360Z,97836.75
2023-08-06T02:24:55.845Z,97837.75
2023-08-06T02:27:22.347Z,97835.72
2023-08-06T02:29:48.859Z,97839.56
2023-08-06T02:32:15.345Z,97828.69
2023-08-06T02:34:41.853Z,97828.69
2023-08-06T02:37:08.875Z,97832.13
2023-08-06T02:39:36.707Z,97832.13
2023-08-06T02:42:04.038Z,97839.38
2023-08-06T02:44:30.631Z,97838.16
2023-08-06T02:46:57.222Z,97834.16
2023-08-06T02:49:23.800Z,97845.00
2023-08-06T02:51:50.651Z,97853.47
2023-08-06T02:54:17.377Z,97859.50
2023-08-06T02:56:45.873Z,97873.91
2023-08-06T02:59:13.170Z,97884.06
2023-08-06T03:01:39.977Z,97886.84
2023-08-06T03:04:07.127Z,97899.75
2023-08-06T03:06:33.624Z,97897.03
2023-08-06T03:09:00.164Z,97906.81
2023-08-06T03:11:26.697Z,97902.66
2023-08-06T03:13:53.240Z,97912.50
2023-08-06T03:16:19.860Z,97905.91
2023-08-06T03:18:46.461Z,97926.25
2023-08-06T03:21:12.927Z,97935.09
2023-08-06T03:23:39.414Z,97940.69
2023-08-06T03:26:06.119Z,97945.03
2023-08-06T03:28:32.773Z,97945.94
2023-08-06T03:31:03.394Z,97946.56
2023-08-06T03:33:30.264Z,97944.22
2023-08-06T03:35:57.258Z,97944.50
2023-08-06T03:38:24.237Z,97956.72
2023-08-06T03:40:51.035Z,97955.34
2023-08-06T03:43:17.797Z,97949.47
2023-08-06T03:45:44.519Z,97951.84
2023-08-06T03:48:11.010Z,97953.75
2023-08-06T03:50:37.826Z,97951.63
2023-08-06T03:53:04.638Z,97958.50
2023-08-06T03:55:31.177Z,97962.78
2023-08-06T03:57:57.697Z,97963.34
2023-08-06T04:00:24.186Z,97957.44
2023-08-06T04:02:51.282Z,97957.47
2023-08-06T04:05:18.324Z,97961.84
2023-08-06T04:07:44.959Z,97960.19
2023-08-06T04:10:12.534Z,97966.81
2023-08-06T04:12:40.405Z,97957.94
2023-08-06T04:15:07.680Z,97960.84
2023-08-06T04:17:34.253Z,97969.47
2023-08-06T04:20:01.180Z,97972.09
2023-08-06T04:22:27.807Z,97970.22
2023-08-06T04:24:54.289Z,97989.25
2023-08-06T04:27:21.449Z,97991.97
2023-08-06T04:29:48.080Z,97996.00
2023-08-06T04:32:14.684Z,97999.78
2023-08-06T04:34:41.284Z,97992.94
2023-08-06T04:37:07.835Z,97991.59
2023-08-06T04:39:34.381Z,97991.59
2023-08-06T04:42:00.903Z,97993.25
2023-08-06T04:44:27.642Z,97985.97
2023-08-06T04:46:54.229Z,97986.69
2023-08-06T04:49:21.921Z,97985.63
2023-08-06T04:51:48.463Z,97983.06
2023-08-06T04:54:15.411Z,97981.91
2023-08-06T04:56:41.881Z,97982.38
2023-08-06T04:59:08.388Z,97981.00
2023-08-06T05:01:34.984Z,97979.97
2023-08-06T05:04:01.575Z,97982.16
2023-08-06T05:06:28.199Z,97989.72
2023-08-06T05:08:54.722Z,97983.84
2023-08-06T05:11:21.263Z,97984.50
2023-08-06T05:13:47.811Z,97979.59
2023-08-06T05:16:14.313Z,97986.19
2023-08-06T05:18:42.032Z,97984.72
2023-08-06T05:21:08.642Z,97989.88
2023-08-06T05:23:35.197Z,97985.50
2023-08-06T05:26:01.864Z,97993.66
2023-08-06T05:28:28.367Z,97991.06
2023-08-06T05:30:54.892Z,97991.59
2023-08-06T05:33:21.438Z,97985.66
2023-08-06T05:35:47.953Z,97990.44
2023-08-06T05:38:14.503Z,97992.63
2023-08-06T05:40:40.973Z,97993.78
2023-08-06T05:43:07.480Z,98001.94
2023-08-06T05:45:34.086Z,97995.94
2023-08-06T05:48:00.788Z,98006.19
2023-08-06T05:50:27.378Z,98007.84
2023-08-06T05:52:54.072Z,98011.81
2023-08-06T05:55:21.508Z,98016.00
2023-08-06T05:57:48.137Z,98014.59
2023-08-06T06:00:15.078Z,98023.16
2023-08-06T06:02:41.654Z,98025.03
2023-08-06T06:05:08.672Z,98021.88
2023-08-06T06:07:35.214Z,98026.72
2023-08-06T06:10:01.867Z,98033.34
2023-08-06T06:12:28.422Z,98029.94
2023-08-06T06:14:54.978Z,98039.91
2023-08-06T06:17:21.624Z,98033.94
2023-08-06T06:19:48.393Z,98040.38
2023-08-06T06:22:15.603Z,98030.69
2023-08-06T06:24:42.072Z,98037.75
2023-08-06T06:27:08.626Z,98036.84
2023-08-06T06:29:35.177Z,98038.13
2023-08-06T06:32:01.721Z,98033.19
2023-08-06T06:34:28.299Z,98037.81
2023-08-06T06:36:54.780Z,98037.94
2023-08-06T06:39:22.261Z,98033.75
2023-08-06T06:41:48.899Z,98039.66
2023-08-06T06:44:16.174Z,98036.31
2023-08-06T06:46:42.806Z,98039.53
2023-08-06T06:49:09.359Z,98040.41
2023-08-06T06:51:35.900Z,98040.25
2023-08-06T06:54:02.438Z,98048.19
2023-08-06T06:56:28.908Z,98044.16
2023-08-06T06:58:55.431Z,98048.47
2023-08-06T07:01:22.040Z,98056.38
2023-08-06T07:03:48.593Z,98050.81
2023-08-06T07:06:16.807Z,98042.16
2023-08-06T07:08:43.279Z,98054.34
2023-08-06T07:11:09.792Z,98059.03
2023-08-06T07:13:36.485Z,98056.16
2023-08-06T07:16:03.435Z,98058.38
2023-08-06T07:18:30.265Z,98052.00
2023-08-06T07:20:57.340Z,98062.28
2023-08-06T07:23:25.574Z,98058.44
2023-08-06T07:25:52.256Z,98067.97
2023-08-06T07:28:18.873Z,98064.44
2023-08-06T07:30:46.461Z,98069.84
2023-08-06T07:33:13.197Z,98070.13
2023-08-06T07:35:39.943Z,98086.56
2023-08-06T07:38:07.052Z,98087.31
2023-08-06T07:40:33.660Z,98093.94
2023-08-06T07:43:00.201Z,98100.13
2023-08-06T07:45:28.095Z,98104.34
2023-08-06T07:47:54.945Z,98104.34
2023-08-06T07:50:21.544Z,98110.13
2023-08-06T07:52:48.228Z,98117.66
2023-08-06T07:55:14.847Z,98124.78
2023-08-06T07:57:42.029Z,98125.88
2023-08-06T08:00:09.133Z,98127.69
2023-08-06T08:02:35.725Z,98125.75
2023-08-06T08:05:02.350Z,98120.56
2023-08-06T08:07:31.444Z,98136.56
2023-08-06T08:09:58.140Z,98132.19
2023-08-06T08:12:24.712Z,98121.00
2023-08-06T08:14:51.240Z,98132.91
2023-08-06T08:17:17.872Z,98128.19
2023-08-06T08:19:44.627Z,98145.25
2023-08-06T08:22:11.233Z,98130.50
2023-08-06T08:24:38.740Z,98138.41
2023-08-06T08:27:05.513Z,98138.69
2023-08-06T08:29:32.101Z,98133.22
2023-08-06T08:31:58.817Z,98129.34
2023-08-06T08:34:25.444Z,98134.19
2023-08-06T08:36:52.075Z,98141.16
2023-08-06T08:39:18.813Z,98145.63
2023-08-06T08:41:45.332Z,98135.28
2023-08-06T08:44:13.053Z,98147.69
2023-08-06T08:46:41.884Z,98146.19
2023-08-06T08:49:08.653Z,98158.00
2023-08-06T08:51:38.514Z,98149.19
2023-08-06T08:54:05.754Z,98156.84
2023-08-06T08:56:32.942Z,98173.44
2023-08-06T08:59:00.187Z,98165.56
2023-08-06T09:01:29.541Z,98168.56
2023-08-06T09:03:58.155Z,98165.91
2023-08-06T09:06:28.558Z,98176.19
2023-08-06T09:09:09.814Z,98171.34
2023-08-06T09:11:43.479Z,98175.22
2023-08-06T09:14:10.512Z,98182.63
2023-08-06T09:16:37.424Z,98179.34
2023-08-06T09:19:10.881Z,98170.34
2023-08-06T09:21:39.160Z,98174.41
2023-08-06T09:24:13.143Z,98172.50
2023-08-06T09:26:41.276Z,98187.03
2023-08-06T09:29:09.533Z,98189.34
2023-08-06T09:31:48.616Z,98194.25
2023-08-06T09:34:19.669Z,98193.75
2023-08-06T09:37:04.590Z,98202.19
2023-08-06T09:39:31.862Z,98210.59
2023-08-06T09:42:00.057Z,98213.34
2023-08-06T09:44:28.323Z,98222.13
2023-08-06T09:46:56.576Z,98215.59
2023-08-06T09:49:27.998Z,98218.97
2023-08-06T09:51:57.398Z,98224.47
2023-08-06T09:54:27.887Z,98214.50
2023-08-06T09:56:58.161Z,98238.34
2023-08-06T09:59:25.438Z,98226.53
2023-08-06T10:01:53.050Z,98247.09
2023-08-06T10:04:24.920Z,98235.53
2023-08-06T10:06:53.805Z,98247.78
2023-08-06T10:09:21.575Z,98239.09
2023-08-06T10:11:54.058Z,98255.38
2023-08-06T10:14:27.734Z,98251.00
2023-08-06T10:16:57.921Z,98248.25
2023-08-06T10:19:26.355Z,98253.09
2023-08-06T10:22:13.902Z,98252.22
2023-08-06T10:24:54.122Z,98254.84
2023-08-06T10:27:41.793Z,98252.06
2023-08-06T10:30:27.543Z,98249.06
2023-08-06T10:32:58.189Z,98259.47
2023-08-06T10:35:55.864Z,98257.44
2023-08-06T10:38:34.262Z,98265.72
2023-08-06T10:41:00.709Z,98266.00
2023-08-06T10:43:34.805Z,98266.28
2023-08-06T10:46:03.757Z,98279.84
2023-08-06T10:48:30.480Z,98273.03
2023-08-06T10:50:57.484Z,98269.97
2023-08-06T10:53:24.344Z,98282.50
2023-08-06T10:55:50.926Z,98274.34
2023-08-06T10:58:17.652Z,98287.56
2023-08-06T11:00:44.218Z,98288.94
2023-08-06T11:03:11.026Z,98288.16
2023-08-06T11:05:37.696Z,98295.94
2023-08-06T11:08:04.503Z,98297.69
2023-08-06T11:10:33.531Z,98286.03
2023-08-06T11:13:05.321Z,98299.88
2023-08-06T11:15:32.703Z,98298.22
2023-08-06T11:17:59.343Z,98299.81
2023-08-06T11:20:25.966Z,98284.88
2023-08-06T11:22:52.585Z,98302.75
2023-08-06T11:25:21.973Z,98304.63
2023-08-06T11:27:49.171Z,98313.03
2023-08-06T11:30:15.774Z,98310.47
2023-08-06T11:32:49.332Z,98297.38
2023-08-06T11:35:16.812Z,98308.31
2023-08-06T11:37:47.549Z,98309.81
2023-08-06T11:40:16.323Z,98307.50
2023-08-06T11:42:43.629Z,98311.47
2023-08-06T11:45:10.812Z,98311.34
2023-08-06T11:47:42.984Z,98318.59
2023-08-06T11:50:09.835Z,98312.88
2023-08-06T11:52:40.362Z,98312.22
2023-08-06T11:55:17.395Z,98307.44
2023-08-06T11:57:47.763Z,98309.91
2023-08-06T12:00:15.333Z,98319.38
2023-08-06T12:02:43.534Z,98323.91
2023-08-06T12:05:17.155Z,98322.28
2023-08-06T12:07:49.212Z,98328.00
2023-08-06T12:10:16.694Z,98334.19
2023-08-06T12:12:43.509Z,98338.66
2023-08-06T12:15:10.891Z,98333.69
2023-08-06T12:17:40.035Z,98337.66
2023-08-06T12:20:08.415Z,98337.25
2023-08-06T12:22:39.627Z,98337.47
2023-08-06T12:25:09.373Z,98342.72
2023-08-06T12:27:36.902Z,98343.03
2023-08-06T12:30:04.901Z,98346.91
2023-08-06T12:32:31.993Z,98339.47
2023-08-06T12:34:58.768Z,98340.25
2023-08-06T12:37:26.673Z,98342.34
2023-08-06T12:39:53.686Z,98340.44
2023-08-06T12:42:20.471Z,98347.34
2023-08-06T12:44:47.201Z,98344.03
2023-08-06T12:47:13.808Z,98349.91
2023-08-06T12:49:40.382Z,98336.88
2023-08-06T12:52:08.692Z,98331.88
2023-08-06T12:54:38.277Z,98332.97
2023-08-06T12:57:05.608Z,98323.00
2023-08-06T12:59:32.352Z,98313.06
2023-08-06T13:01:58.936Z,98325.84
2023-08-06T13:04:25.759Z,98320.44
2023-08-06T13:06:52.401Z,98327.53
2023-08-06T13:09:20.568Z,98336.03
2023-08-06T13:11:47.796Z,98343.78
2023-08-06T13:14:15.636Z,98339.75
2023-08-06T13:16:43.920Z,98342.09
2023-08-06T13:19:11.377Z,98345.91
2023-08-06T13:22:06.242Z,98359.03
2023-08-06T13:24:32.921Z,98343.81
2023-08-06T13:26:59.595Z,98337.59
2023-08-06T13:29:27.583Z,98354.09
2023-08-06T13:31:54.852Z,98349.19
2023-08-06T13:34:21.564Z,98356.59
2023-08-06T13:36:48.138Z,98354.88
2023-08-06T13:39:17.579Z,98347.31
2023-08-06T13:41:44.592Z,98346.78
2023-08-06T13:44:11.913Z,98345.78
2023-08-06T13:46:38.507Z,98346.94
2023-08-06T13:49:05.018Z,98362.03
2023-08-06T13:51:31.607Z,98353.72
2023-08-06T13:53:58.780Z,98356.00
2023-08-06T13:56:25.270Z,98365.69
2023-08-06T13:58:52.016Z,98355.00
2023-08-06T14:01:20.273Z,98359.81
2023-08-06T14:03:46.969Z,98356.28
2023-08-06T14:06:13.580Z,98355.00
2023-08-06T14:08:40.127Z,98368.56
2023-08-06T14:11:07.561Z,98372.41
2023-08-06T14:13:34.202Z,98374.38
2023-08-06T14:16:00.744Z,98375.88
2023-08-06T14:18:27.271Z,98385.34
2023-08-06T14:20:53.747Z,98395.38
2023-08-06T14:23:20.334Z,98407.47
2023-08-06T14:25:46.884Z,98408.13
2023-08-06T14:28:13.427Z,98406.59
2023-08-06T14:30:39.950Z,98418.75
2023-08-06T14:33:21.382Z,98415.88
2023-08-06T14:35:53.129Z,98410.03
2023-08-06T14:38:19.742Z,98407.91
2023-08-06T14:40:46.361Z,98407.72
2023-08-06T14:43:15.578Z,98413.84
2023-08-06T14:45:42.671Z,98414.78
2023-08-06T14:48:09.198Z,98411.44
2023-08-06T14:50:35.805Z,98419.06
2023-08-06T14:53:05.301Z,98418.91
2023-08-06T14:55:33.493Z,98418.44
2023-08-06T14:58:00.118Z,98433.69
2023-08-06T15:00:26.827Z,98420.88
2023-08-06T15:02:53.583Z,98432.09
2023-08-06T15:05:20.399Z,98437.09
2023-08-06T15:07:47.050Z,98426.00
2023-08-06T15:10:26.507Z,98436.94
2023-08-06T15:12:53.735Z,98433.72
2023-08-06T15:15:20.229Z,98432.22
2023-08-06T15:17:46.896Z,98428.91
2023-08-06T15:20:13.851Z,98433.69
2023-08-06T15:22:40.746Z,98438.69
2023-08-06T15:25:07.717Z,98432.31
2023-08-06T15:27:34.962Z,98436.63
2023-08-06T15:30:01.900Z,98437.28
2023-08-06T15:32:28.843Z,98436.53
2023-08-06T15:34:55.537Z,98436.78
2023-08-06T15:37:23.305Z,98444.22
2023-08-06T15:39:49.795Z,98451.19
2023-08-06T15:42:16.770Z,98452.19
2023-08-06T15:44:43.409Z,98447.53
2023-08-06T15:47:10.429Z,98458.03
2023-08-06T15:49:36.970Z,98451.88
2023-08-06T15:52:03.826Z,98471.03
2023-08-06T15:54:30.334Z,98475.94
2023-08-06T15:56:57.060Z,98471.63
2023-08-06T15:59:27.627Z,98470.78
2023-08-06T16:01:54.604Z,98468.91
2023-08-06T16:04:24.666Z,98487.84
2023-08-06T16:06:51.153Z,98477.59
2023-08-06T16:09:17.702Z,98478.31
2023-08-06T16:11:45.401Z,98471.09
2023-08-06T16:14:12.274Z,98468.78
2023-08-06T16:16:39.020Z,98464.31
2023-08-06T16:19:05.529Z,98467.44
2023-08-06T16:21:32.628Z,98461.91
2023-08-06T16:23:59.161Z,98482.59
2023-08-06T16:26:25.739Z,98492.09
2023-08-06T16:28:52.803Z,98488.28
2023-08-06T16:31:20.670Z,98496.03
2023-08-06T16:33:47.703Z,98501.00
2023-08-06T16:36:14.204Z,98507.38
2023-08-06T16:38:40.853Z,98513.41
2023-08-06T16:41:07.484Z,98522.91
2023-08-06T16:43:34.087Z,98522.16
2023-08-06T16:46:00.831Z,98524.94
2023-08-06T16:48:31.814Z,98522.44
2023-08-06T16:51:03.451Z,98527.16
2023-08-06T16:53:30.402Z,98530.69
2023-08-06T16:56:00.533Z,98535.25
2023-08-06T16:58:27.645Z,98536.19
2023-08-06T17:00:56.685Z,98535.16
2023-08-06T17:03:23.403Z,98545.84
2023-08-06T17:05:50.102Z,98541.22
2023-08-06T17:08:16.922Z,98549.19
2023-08-06T17:10:43.519Z,98548.16
2023-08-06T17:13:19.807Z,98546.16
2023-08-06T17:15:48.277Z,98532.53
2023-08-06T17:18:17.948Z,98542.53
2023-08-06T17:20:45.830Z,98546.34
2023-08-06T17:23:12.834Z,98542.25
2023-08-06T17:25:43.770Z,98543.47
2023-08-06T17:28:12.068Z,98551.09
2023-08-06T17:30:43.884Z,98553.19
2023-08-06T17:33:13.094Z,98555.16
2023-08-06T17:35:44.780Z,98551.53
2023-08-06T17:38:12.969Z,98549.13
2023-08-06T17:40:40.509Z,98551.81
2023-08-06T17:43:07.200Z,98552.81
2023-08-06T17:45:33.789Z,98552.59
2023-08-06T17:48:00.368Z,98548.06
2023-08-06T17:50:27.091Z,98552.47
2023-08-06T17:52:53.720Z,98554.34
2023-08-06T17:55:20.312Z,98554.09
2023-08-06T17:57:46.875Z,98551.47
2023-08-06T18:00:13.685Z,98556.59
2023-08-06T18:02:40.464Z,98567.53
2023-08-06T18:05:07.474Z,98566.53
2023-08-06T18:07:34.066Z,98566.38
2023-08-06T18:10:00.729Z,98567.50
2023-08-06T18:12:27.270Z,98567.63
2023-08-06T18:14:53.806Z,98571.19
2023-08-06T18:17:20.336Z,98569.31
2023-08-06T18:19:47.023Z,98569.34
2023-08-06T18:22:13.542Z,98562.28
2023-08-06T18:24:40.081Z,98564.78
2023-08-06T18:27:06.833Z,98571.56
2023-08-06T18:29:33.324Z,98583.03
2023-08-06T18:31:59.884Z,98574.22
2023-08-06T18:34:26.464Z,98581.28
2023-08-06T18:36:53.463Z,98577.78
2023-08-06T18:39:20.416Z,98586.75
2023-08-06T18:41:47.689Z,98590.59
2023-08-06T18:44:14.252Z,98592.28
2023-08-06T18:46:40.859Z,98599.59
2023-08-06T18:49:07.360Z,98595.84
2023-08-06T18:51:33.875Z,98591.91
2023-08-06T18:54:00.329Z,98592.16
2023-08-06T18:56:26.852Z,98595.44
2023-08-06T18:58:53.364Z,98592.72
2023-08-06T19:01:20.407Z,98601.75
2023-08-06T19:03:49.224Z,98600.94
2023-08-06T19:06:16.001Z,98603.16
2023-08-06T19:08:42.873Z,98607.56
2023-08-06T19:11:09.498Z,98608.13
2023-08-06T19:13:36.174Z,98607.31
2023-08-06T19:16:02.771Z,98616.88
2023-08-06T19:18:29.385Z,98613.59
2023-08-06T19:20:59.504Z,98610.88
2023-08-06T19:23:28.665Z,98616.31
2023-08-06T19:25:56.065Z,98612.53
2023-08-06T19:28:22.846Z,98612.59
2023-08-06T19:30:50.067Z,98608.22
2023-08-06T19:33:18.856Z,98614.75
2023-08-06T19:35:49.042Z,98622.88
2023-08-06T19:38:21.282Z,98618.00
2023-08-06T19:40:48.159Z,98629.41
2023-08-06T19:43:14.728Z,98627.78
2023-08-06T19:45:41.844Z,98631.28
2023-08-06T19:48:08.547Z,98620.16
2023-08-06T19:50:35.134Z,98625.84
2023-08-06T19:53:01.719Z,98619.88
2023-08-06T19:55:28.571Z,98619.09
2023-08-06T19:57:55.128Z,98625.31
2023-08-06T20:00:21.725Z,98623.13
2023-08-06T20:02:48.502Z,98625.63
2023-08-06T20:05:15.277Z,98625.59
2023-08-06T20:07:41.765Z,98628.84
2023-08-06T20:10:09.027Z,98635.63
2023-08-06T20:12:35.546Z,98629.41
2023-08-06T20:15:02.080Z,98633.22
2023-08-06T20:17:28.583Z,98638.06
2023-08-06T20:19:55.127Z,98635.91
2023-08-06T20:22:21.648Z,98647.28
2023-08-06T20:24:48.194Z,98638.59
2023-08-06T20:27:14.751Z,98636.69
2023-08-06T20:29:41.284Z,98645.66
2023-08-06T20:32:07.972Z,98649.97
2023-08-06T20:34:34.558Z,98654.63
2023-08-06T20:37:01.226Z,98648.91
2023-08-06T20:39:27.757Z,98648.38
2023-08-06T20:41:55.250Z,98651.63
2023-08-06T20:44:22.087Z,98653.25
2023-08-06T20:46:48.746Z,98646.78
2023-08-06T20:49:15.410Z,98648.13
2023-08-06T20:51:41.902Z,98654.34
2023-08-06T20:54:08.389Z,98659.72
2023-08-06T20:56:35.051Z,98657.03
2023-08-06T20:59:01.630Z,98647.81
2023-08-06T21:01:28.190Z,98653.50
2023-08-06T21:03:54.727Z,98663.53
2023-08-06T21:06:21.362Z,98666.78
2023-08-06T21:08:47.898Z,98658.63
2023-08-06T21:11:17.138Z,98664.66
2023-08-06T21:13:44.788Z,98678.41
2023-08-06T21:16:11.316Z,98673.28
2023-08-06T21:18:37.908Z,98678.16
2023-08-06T21:21:08.825Z,98680.84
2023-08-06T21:23:35.579Z,98685.44
2023-08-06T21:26:06.243Z,98677.59
2023-08-06T21:28:34.854Z,98697.63
2023-08-06T21:31:06.211Z,98688.97
2023-08-06T21:33:34.211Z,98688.94
2023-08-06T21:36:04.646Z,98684.63
2023-08-06T21:38:36.161Z,98688.69
2023-08-06T21:41:12.843Z,98692.75
2023-08-06T21:43:44.760Z,98687.63
2023-08-06T21:46:14.081Z,98691.94
2023-08-06T21:48:43.228Z,98690.03
2023-08-06T21:51:11.073Z,98693.88
2023-08-06T21:53:39.412Z,98681.91
2023-08-06T21:56:11.791Z,98703.31
2023-08-06T21:58:41.137Z,98692.72
2023-08-06T22:01:10.129Z,98692.97
2023-08-06T22:03:39.280Z,98692.19
2023-08-06T22:06:07.764Z,98693.84
2023-08-06T22:08:35.189Z,98700.84
2023-08-06T22:11:01.925Z,98693.28
2023-08-06T22:13:28.680Z,98693.28
2023-08-06T22:15:55.737Z,98688.41
2023-08-06T22:18:22.953Z,98690.03
2023-08-06T22:20:49.738Z,98684.63
2023-08-06T22:23:16.249Z,98681.38
2023-08-06T22:25:42.766Z,98685.47
2023-08-06T22:28:09.962Z,98684.09
2023-08-06T22:30:37.007Z,98683.81
2023-08-06T22:33:03.695Z,98678.13
2023-08-06T22:35:30.506Z,98677.06
2023-08-06T22:37:58.135Z,98682.50
2023-08-06T22:40:24.852Z,98679.75
2023-08-06T22:42:52.859Z,98685.44
2023-08-06T22:45:19.337Z,98685.72
2023-08-06T22:47:45.991Z,98690.31
2023-08-06T22:50:12.528Z,98698.69
2023-08-06T22:52:40.050Z,98700.63
2023-08-06T22:55:19.054Z,98699.22
2023-08-06T22:57:53.799Z,98705.25
2023-08-06T23:00:20.321Z,98707.94
2023-08-06T23:02:58.769Z,98712.81
2023-08-06T23:05:25.848Z,98707.44
2023-08-06T23:07:52.483Z,98714.22
2023-08-06T23:10:20.444Z,98713.13
2023-08-06T23:12:48.668Z,98717.72
2023-08-06T23:15:15.198Z,98712.31
2023-08-06T23:17:41.761Z,98710.97
2023-08-06T23:20:09.231Z,98715.03
2023-08-06T23:22:35.897Z,98700.94
2023-08-06T23:25:02.558Z,98705.25
2023-08-06T23:27:29.194Z,98711.22
2023-08-06T23:29:55.736Z,98712.84
2023-08-06T23:32:22.569Z,98712.31
2023-08-06T23:34:53.809Z,98703.09
2023-08-06T23:37:21.361Z,98705.28
2023-08-06T23:39:48.069Z,98706.63
2023-08-06T23:42:14.639Z,98705.28
2023-08-06T23:44:41.257Z,98708.53
2023-08-06T23:47:07.826Z,98716.09
2023-08-06T23:49:34.421Z,98709.34
2023-08-06T23:52:00.946Z,98703.66
2023-08-06T23:54:27.459Z,98707.44
2023-08-06T23:56:54.064Z,98703.38
2023-08-06T23:59:20.620Z,98696.59
